createdAt,value
2023-10-26T00:00:02.866Z,151287.66
2023-10-26T00:05:15.325Z,151308.31
2023-10-26T00:10:17.681Z,151321.22
2023-10-26T00:15:19.760Z,151356.09
2023-10-26T00:20:21.845Z,151357.38
2023-10-26T00:25:23.686Z,151322.53
2023-10-26T00:30:25.689Z,151296.72
2023-10-26T00:35:27.561Z,151336.75
2023-10-26T00:40:29.586Z,151312.19
2023-10-26T00:45:36.680Z,151343.19
2023-10-26T00:50:39.850Z,151314.81
2023-10-26T00:55:42.635Z,151360.00
2023-10-26T01:00:45.809Z,151349.66
2023-10-26T01:05:47.774Z,151349.66
2023-10-26T01:10:49.629Z,151362.56
2023-10-26T01:15:51.670Z,151379.31
2023-10-26T01:20:55.399Z,151406.47
2023-10-26T01:25:59.601Z,151529.19
2023-10-26T01:31:04.275Z,151454.25
2023-10-26T01:36:06.231Z,151441.34
2023-10-26T01:41:08.197Z,151438.78
2023-10-26T01:46:09.875Z,151407.75
2023-10-26T01:51:11.985Z,151440.06
2023-10-26T01:56:15.399Z,151483.97
2023-10-26T02:01:17.491Z,151456.81
2023-10-26T02:06:19.477Z,151446.47
2023-10-26T02:11:21.276Z,151433.56
2023-10-26T02:16:22.947Z,151396.13
2023-10-26T02:21:24.666Z,151384.53
2023-10-26T02:26:26.394Z,151362.56
2023-10-26T02:31:28.145Z,151409.06
2023-10-26T02:36:31.122Z,151387.09
2023-10-26T02:41:32.889Z,151412.91
2023-10-26T02:46:34.560Z,151433.56
2023-10-26T02:51:36.274Z,151460.72
2023-10-26T02:56:38.039Z,151496.88
2023-10-26T03:01:39.796Z,151505.94
2023-10-26T03:06:42.122Z,151529.19
2023-10-26T03:11:43.923Z,151553.72
2023-10-26T03:16:45.669Z,151561.50
2023-10-26T03:21:47.983Z,151582.19
2023-10-26T03:26:49.772Z,151560.22
2023-10-26T03:31:52.653Z,151595.09
2023-10-26T03:36:54.398Z,151586.03
2023-10-26T03:41:56.336Z,151582.19
2023-10-26T03:47:00.017Z,151600.22
2023-10-26T03:52:02.369Z,151567.94
2023-10-26T03:57:04.738Z,151583.47
2023-10-26T04:02:06.673Z,151539.53
2023-10-26T04:07:09.119Z,151529.19
2023-10-26T04:12:10.987Z,151511.09
2023-10-26T04:17:13.565Z,151512.38
2023-10-26T04:22:15.299Z,151498.16
2023-10-26T04:27:17.028Z,151511.09
2023-10-26T04:32:18.852Z,151509.81
2023-10-26T04:37:20.717Z,151513.66
2023-10-26T04:42:22.602Z,151508.50
2023-10-26T04:47:24.958Z,151496.88
2023-10-26T04:52:27.381Z,151504.66
2023-10-26T04:57:29.094Z,151490.41
2023-10-26T05:02:30.840Z,151502.03
2023-10-26T05:07:32.659Z,151515.00
2023-10-26T05:12:36.965Z,151508.50
2023-10-26T05:17:39.419Z,151505.94
2023-10-26T05:22:41.202Z,151498.16
2023-10-26T05:27:42.979Z,151499.47
2023-10-26T05:32:47.659Z,151508.50
2023-10-26T05:37:49.496Z,151493.03
2023-10-26T05:42:51.647Z,151473.63
2023-10-26T05:48:06.689Z,151485.25
2023-10-26T05:53:09.835Z,151482.69
2023-10-26T05:58:11.524Z,151487.84
2023-10-26T06:03:13.267Z,151480.06
2023-10-26T06:08:15.138Z,151437.47
2023-10-26T06:13:16.826Z,151440.06
2023-10-26T06:18:18.694Z,151476.22
2023-10-26T06:23:20.494Z,151427.16
2023-10-26T06:28:22.169Z,151459.44
2023-10-26T06:33:25.219Z,151512.38
2023-10-26T06:38:28.981Z,151494.31
2023-10-26T06:43:31.087Z,151509.81
2023-10-26T06:48:33.074Z,151536.91
2023-10-26T06:53:34.956Z,151538.25
2023-10-26T06:58:36.609Z,151553.72
2023-10-26T07:03:38.401Z,151570.50
2023-10-26T07:08:40.090Z,151580.84
2023-10-26T07:13:42.016Z,151587.31
2023-10-26T07:18:44.686Z,151592.47
2023-10-26T07:23:46.340Z,151584.75
2023-10-26T07:28:48.081Z,151595.09
2023-10-26T07:33:50.277Z,151591.19
2023-10-26T07:39:44.726Z,151593.81
2023-10-26T07:44:14.072Z,151593.81
2023-10-26T07:49:15.782Z,151617.06
2023-10-26T07:54:19.002Z,151618.34
2023-10-26T07:59:20.821Z,151615.78
2023-10-26T08:04:22.604Z,151623.50
2023-10-26T08:09:24.296Z,151620.91
2023-10-26T08:16:04.225Z,151672.69
2023-10-26T08:19:58.392Z,151673.97
2023-10-26T08:25:01.084Z,151670.06
2023-10-26T08:30:07.092Z,151685.59
2023-10-26T08:35:09.014Z,151668.78
2023-10-26T08:40:14.110Z,151663.63
2023-10-26T08:45:24.711Z,151692.03
2023-10-26T08:50:26.585Z,151620.91
2023-10-26T08:55:28.388Z,151685.59
2023-10-26T09:00:31.755Z,151682.97
2023-10-26T09:05:33.528Z,151706.28
2023-10-26T09:10:35.429Z,151701.09
2023-10-26T09:15:51.400Z,151734.69
2023-10-26T09:21:06.273Z,151778.66
2023-10-26T09:26:09.547Z,151783.81
2023-10-26T09:31:11.337Z,151826.47
2023-10-26T09:36:15.057Z,151843.31
2023-10-26T09:41:17.916Z,151887.28
2023-10-26T09:46:20.731Z,151893.72
2023-10-26T09:51:22.562Z,151875.66
2023-10-26T09:56:28.770Z,151882.09
2023-10-26T10:01:32.743Z,151876.94
2023-10-26T10:06:54.616Z,151913.16
2023-10-26T10:12:05.829Z,151972.63
2023-10-26T10:17:07.768Z,151993.34
2023-10-26T10:22:40.241Z,152025.72
2023-10-26T10:28:01.991Z,152036.09
2023-10-26T10:33:04.574Z,152050.31
2023-10-26T10:38:12.179Z,152006.31
2023-10-26T10:43:13.931Z,152064.53
2023-10-26T10:48:15.596Z,152104.66
2023-10-26T10:53:18.011Z,152165.47
2023-10-26T10:58:19.736Z,152213.41
2023-10-26T11:03:25.070Z,152138.31
2023-10-26T11:08:26.973Z,152115.03
2023-10-26T11:13:28.725Z,152137.03
2023-10-26T11:18:30.568Z,152139.59
2023-10-26T11:23:32.371Z,152086.53
2023-10-26T11:28:35.480Z,152096.88
2023-10-26T11:33:40.910Z,152096.88
2023-10-26T11:38:49.758Z,152096.88
2023-10-26T11:43:51.885Z,152073.59
2023-10-26T11:48:53.680Z,152050.31
2023-10-26T11:53:56.695Z,152052.88
2023-10-26T11:58:58.374Z,152045.16
2023-10-26T12:04:00.184Z,152059.38
2023-10-26T12:09:02.037Z,152059.38
2023-10-26T12:14:03.761Z,152014.09
2023-10-26T12:19:05.563Z,152015.38
2023-10-26T12:24:07.481Z,152011.50
2023-10-26T12:29:09.194Z,152039.94
2023-10-26T12:34:11.030Z,151999.81
2023-10-26T12:39:14.257Z,152003.69
2023-10-26T12:44:17.288Z,151979.13
2023-10-26T12:49:19.156Z,151979.13
2023-10-26T12:54:20.918Z,151948.06
2023-10-26T12:59:22.642Z,151939.00
2023-10-26T13:04:24.590Z,151979.13
2023-10-26T13:09:27.028Z,151915.72
2023-10-26T13:14:29.129Z,151946.78
2023-10-26T13:19:30.779Z,151923.50
2023-10-26T13:24:34.028Z,151896.34
2023-10-26T13:29:35.885Z,151900.22
2023-10-26T13:34:37.742Z,151919.63
2023-10-26T13:39:39.413Z,151913.16
2023-10-26T13:44:41.374Z,151911.84
2023-10-26T13:49:43.363Z,151897.66
2023-10-26T13:54:46.600Z,151875.66
2023-10-26T13:59:48.606Z,151836.84
2023-10-26T14:04:50.658Z,151873.03
2023-10-26T14:09:53.286Z,151875.66
2023-10-26T14:14:54.963Z,151888.59
2023-10-26T14:19:56.625Z,151874.38
2023-10-26T14:24:58.689Z,151887.28
2023-10-26T14:30:00.401Z,151892.44
2023-10-26T14:35:02.056Z,151834.25
2023-10-26T14:40:04.821Z,151884.66
2023-10-26T14:45:07.055Z,151884.66
2023-10-26T14:50:08.888Z,151843.31
2023-10-26T14:55:10.611Z,151844.59
2023-10-26T15:00:12.834Z,151854.94
2023-10-26T15:05:14.516Z,151827.78
2023-10-26T15:10:21.705Z,151790.28
2023-10-26T15:15:29.800Z,151759.25
2023-10-26T15:20:31.834Z,151778.66
2023-10-26T15:25:36.936Z,151741.19
2023-10-26T15:30:39.729Z,151732.13
2023-10-26T15:35:41.433Z,151708.88
2023-10-26T15:40:43.067Z,151666.19
2023-10-26T15:45:50.740Z,151769.59
2023-10-26T15:50:52.434Z,151725.63
2023-10-26T15:56:03.008Z,151640.31
2023-10-26T16:01:05.354Z,151604.09
2023-10-26T16:06:09.923Z,151565.34
2023-10-26T16:11:12.936Z,151579.56
2023-10-26T16:16:15.056Z,151525.28
2023-10-26T16:21:17.237Z,151502.03
2023-10-26T16:26:19.171Z,151504.66
2023-10-26T16:31:20.979Z,151489.13
2023-10-26T16:36:25.532Z,151482.69
2023-10-26T16:41:27.272Z,151458.09
2023-10-26T16:46:29.033Z,151427.16
2023-10-26T16:51:30.791Z,151405.19
2023-10-26T16:56:32.567Z,151452.97
2023-10-26T17:01:34.235Z,151469.72
2023-10-26T17:06:35.919Z,151467.16
2023-10-26T17:11:37.666Z,151462.00
2023-10-26T17:16:39.643Z,151445.19
2023-10-26T17:21:41.420Z,151452.97
2023-10-26T17:26:44.258Z,151396.13
2023-10-26T17:31:45.989Z,151380.66
2023-10-26T17:36:47.844Z,151375.47
2023-10-26T17:41:51.490Z,151344.47
2023-10-26T17:46:53.356Z,151347.09
2023-10-26T17:51:55.267Z,151323.81
2023-10-26T17:57:25.487Z,151307.03
2023-10-26T18:02:49.358Z,151272.19
2023-10-26T18:07:51.041Z,151238.56
2023-10-26T18:12:53.627Z,151225.69
2023-10-26T18:17:55.455Z,151246.34
2023-10-26T18:23:06.521Z,151225.69
2023-10-26T18:28:08.891Z,151258.00
2023-10-26T18:33:10.618Z,151267.00
2023-10-26T18:38:12.313Z,151264.44
2023-10-26T18:43:14.672Z,151291.56
2023-10-26T18:48:16.297Z,151247.63
2023-10-26T18:53:19.603Z,151283.81
2023-10-26T18:58:23.125Z,151274.75
2023-10-26T19:03:25.088Z,151258.00
2023-10-26T19:08:26.883Z,151220.50
2023-10-26T19:13:30.470Z,151276.06
2023-10-26T19:18:32.776Z,151276.06
2023-10-26T19:23:34.472Z,151326.44
2023-10-26T19:28:36.201Z,151365.13
2023-10-26T19:33:38.564Z,151288.94
2023-10-26T19:38:40.283Z,151246.34
2023-10-26T19:43:41.945Z,151233.41
2023-10-26T19:48:43.726Z,151228.25
2023-10-26T19:53:48.365Z,151298.00
2023-10-26T19:58:50.148Z,151286.38
2023-10-26T20:03:52.050Z,151300.56
2023-10-26T20:08:53.898Z,151291.56
2023-10-26T20:13:55.592Z,151265.72
2023-10-26T20:19:03.294Z,151219.22
2023-10-26T20:24:06.260Z,151251.53
2023-10-26T20:29:09.004Z,151250.25
2023-10-26T20:34:20.168Z,151198.53
2023-10-26T20:39:21.964Z,151188.22
2023-10-26T20:44:23.638Z,151158.56
2023-10-26T20:49:25.281Z,151140.47
2023-10-26T20:54:26.973Z,151154.66
2023-10-26T20:59:28.604Z,151119.81
2023-10-26T21:04:30.296Z,151095.31
2023-10-26T21:09:33.311Z,151073.38
2023-10-26T21:14:35.083Z,151063.06
2023-10-26T21:19:36.831Z,151026.94
2023-10-26T21:24:38.626Z,150992.13
2023-10-26T21:29:40.485Z,150988.22
2023-10-26T21:34:42.183Z,151054.03
2023-10-26T21:39:44.052Z,150930.19
2023-10-26T21:44:45.824Z,150901.84
2023-10-26T21:49:47.496Z,150975.34
2023-10-26T21:54:49.485Z,150900.56
2023-10-26T21:59:51.287Z,150930.19
2023-10-26T22:04:53.029Z,150877.38
2023-10-26T22:09:55.738Z,150856.72
2023-10-26T22:14:58.047Z,150904.44
2023-10-26T22:20:00.621Z,151019.19
2023-10-26T22:25:03.057Z,150949.56
2023-10-26T22:30:06.970Z,150912.19
2023-10-26T22:35:09.143Z,150897.97
2023-10-26T22:40:11.470Z,150885.06
2023-10-26T22:45:14.284Z,150910.88
2023-10-26T22:50:15.989Z,150885.06
2023-10-26T22:55:18.035Z,150891.53
2023-10-26T23:00:20.074Z,150903.13
2023-10-26T23:05:21.883Z,151011.50
2023-10-26T23:10:23.764Z,150916.03
2023-10-26T23:15:25.513Z,150985.66
2023-10-26T23:20:27.544Z,150992.13
2023-10-26T23:25:29.304Z,150961.16
2023-10-26T23:30:31.046Z,150934.09
2023-10-26T23:35:38.135Z,150923.78
2023-10-26T23:40:39.855Z,151017.91
2023-10-26T23:45:41.605Z,150963.72
2023-10-26T23:50:43.308Z,150917.31
2023-10-26T23:55:45.125Z,150874.75
